Hanamaulu, Hawaii
Current Conditions -  °F | °C
As of 2:53 PM on Tuesday 27 Jan 2015 (Local Time) from PHLI Reporting Station
Broken Clouds Broken Clouds  
Wind Chill: 77°   Ceiling: 4100
Heat Index: 79°   Visibility: 10mi
Dew Point: 62°   Wind: 9mph
Humidity: 60%   Direction: 100°E
Pressure: 29.93"   Gusts: NA
Location:  21.99°N, 159.35°W
Report Text: PHLI 280053Z 10008KT 10SM FEW025 SCT033 BKN041 25/17 A2993 RMK AO2 SLP132 T02500167
Loading
Personal Weather Stations






























Interactive Weather Map New forecast layout! Learn more

10-Day Weather Forecast

Advertisements
Track Severe Weather on mobile